sensor_id;sensor_type;location;lat;lon;timestamp;pressure;altitude;pressure_sealevel;temperature;humidity
57250;BME280;43102;52.014;-0.680;2023-02-12T00:00:00;102885;;;9.76;65.83
57250;BME280;43102;52.014;-0.680;2023-02-12T00:01:00;102885;;;9.76;65.83
57250;BME280;43102;52.014;-0.680;2023-02-12T00:02:00;102885;;;9.76;65.83
57250;BME280;43102;52.014;-0.680;2023-02-12T00:03:00;102890;;;9.72;65.96
57250;BME280;43102;52.014;-0.680;2023-02-12T00:04:00;102890;;;9.72;65.96
57250;BME280;43102;52.014;-0.680;2023-02-12T00:05:00;102890;;;9.72;65.96
57250;BME280;43102;52.014;-0.680;2023-02-12T00:06:00;102890;;;9.72;65.96
57250;BME280;43102;52.014;-0.680;2023-02-12T00:07:00;102890;;;9.72;65.96
57250;BME280;43102;52.014;-0.680;2023-02-12T00:08:00;102878;;;9.74;66.09
57250;BME280;43102;52.014;-0.680;2023-02-12T00:09:00;102878;;;9.74;66.09
57250;BME280;43102;52.014;-0.680;2023-02-12T00:10:00;102878;;;9.74;66.09
57250;BME280;43102;52.014;-0.680;2023-02-12T00:12:00;102878;;;9.74;66.09
57250;BME280;43102;52.014;-0.680;2023-02-12T00:13:00;102884;;;9.70;66.10
57250;BME280;43102;52.014;-0.680;2023-02-12T00:14:00;102884;;;9.70;66.10
57250;BME280;43102;52.014;-0.680;2023-02-12T00:15:00;102884;;;9.70;66.10
57250;BME280;43102;52.014;-0.680;2023-02-12T00:16:03;102884;;;9.70;66.10
57250;BME280;43102;52.014;-0.680;2023-02-12T00:17:00;102884;;;9.70;66.10
57250;BME280;43102;52.014;-0.680;2023-02-12T00:18:00;102878;;;9.59;66.13
57250;BME280;43102;52.014;-0.680;2023-02-12T00:19:00;102878;;;9.59;66.13
57250;BME280;43102;52.014;-0.680;2023-02-12T00:20:00;102878;;;9.59;66.13
57250;BME280;43102;52.014;-0.680;2023-02-12T00:21:00;102878;;;9.59;66.13
57250;BME280;43102;52.014;-0.680;2023-02-12T00:22:00;102878;;;9.59;66.13
57250;BME280;43102;52.014;-0.680;2023-02-12T00:23:00;102882;;;9.63;66.26
57250;BME280;43102;52.014;-0.680;2023-02-12T00:24:00;102882;;;9.63;66.26
57250;BME280;43102;52.014;-0.680;2023-02-12T00:25:00;102882;;;9.63;66.26
57250;BME280;43102;52.014;-0.680;2023-02-12T00:26:03;102882;;;9.63;66.26
57250;BME280;43102;52.014;-0.680;2023-02-12T00:27:00;102882;;;9.63;66.26
57250;BME280;43102;52.014;-0.680;2023-02-12T00:28:01;102879;;;9.65;66.39
57250;BME280;43102;52.014;-0.680;2023-02-12T00:29:00;102879;;;9.65;66.39
57250;BME280;43102;52.014;-0.680;2023-02-12T00:30:00;102879;;;9.65;66.39
57250;BME280;43102;52.014;-0.680;2023-02-12T00:31:04;102879;;;9.65;66.39
57250;BME280;43102;52.014;-0.680;2023-02-12T00:32:00;102879;;;9.65;66.39
57250;BME280;43102;52.014;-0.680;2023-02-12T00:33:00;102880;;;9.64;66.40
57250;BME280;43102;52.014;-0.680;2023-02-12T00:34:00;102880;;;9.64;66.40
57250;BME280;43102;52.014;-0.680;2023-02-12T00:35:00;102880;;;9.64;66.40
57250;BME280;43102;52.014;-0.680;2023-02-12T00:36:00;102880;;;9.64;66.40
57250;BME280;43102;52.014;-0.680;2023-02-12T00:37:00;102880;;;9.64;66.40
57250;BME280;43102;52.014;-0.680;2023-02-12T00:38:00;102875;;;9.65;66.55
57250;BME280;43102;52.014;-0.680;2023-02-12T00:39:00;102875;;;9.65;66.55
57250;BME280;43102;52.014;-0.680;2023-02-12T00:40:00;102875;;;9.65;66.55
57250;BME280;43102;52.014;-0.680;2023-02-12T00:41:00;102875;;;9.65;66.55
57250;BME280;43102;52.014;-0.680;2023-02-12T00:42:00;102875;;;9.65;66.55
57250;BME280;43102;52.014;-0.680;2023-02-12T00:43:00;102876;;;9.58;66.93
57250;BME280;43102;52.014;-0.680;2023-02-12T00:44:00;102876;;;9.58;66.93
57250;BME280;43102;52.014;-0.680;2023-02-12T00:45:00;102876;;;9.58;66.93
57250;BME280;43102;52.014;-0.680;2023-02-12T00:46:00;102876;;;9.58;66.93
57250;BME280;43102;52.014;-0.680;2023-02-12T00:47:00;102876;;;9.58;66.93
57250;BME280;43102;52.014;-0.680;2023-02-12T00:48:00;102883;;;9.55;67.06
57250;BME280;43102;52.014;-0.680;2023-02-12T00:49:00;102883;;;9.55;67.06
57250;BME280;43102;52.014;-0.680;2023-02-12T00:50:00;102883;;;9.55;67.06
57250;BME280;43102;52.014;-0.680;2023-02-12T00:51:00;102883;;;9.55;67.06
57250;BME280;43102;52.014;-0.680;2023-02-12T00:52:00;102883;;;9.55;67.06
57250;BME280;43102;52.014;-0.680;2023-02-12T00:53:00;102881;;;9.57;66.95
57250;BME280;43102;52.014;-0.680;2023-02-12T00:54:00;102881;;;9.57;66.95
57250;BME280;43102;52.014;-0.680;2023-02-12T00:55:00;102881;;;9.57;66.95
57250;BME280;43102;52.014;-0.680;2023-02-12T00:56:00;102881;;;9.57;66.95
57250;BME280;43102;52.014;-0.680;2023-02-12T00:57:00;102881;;;9.57;66.95
57250;BME280;43102;52.014;-0.680;2023-02-12T00:58:00;102892;;;9.56;66.89
57250;BME280;43102;52.014;-0.680;2023-02-12T00:59:00;102892;;;9.56;66.89
57250;BME280;43102;52.014;-0.680;2023-02-12T01:00:00;102892;;;9.56;66.89
57250;BME280;43102;52.014;-0.680;2023-02-12T01:01:00;102892;;;9.56;66.89
57250;BME280;43102;52.014;-0.680;2023-02-12T01:02:00;102892;;;9.56;66.89
57250;BME280;43102;52.014;-0.680;2023-02-12T01:03:00;102882;;;9.44;66.91
57250;BME280;43102;52.014;-0.680;2023-02-12T01:04:00;102882;;;9.44;66.91
57250;BME280;43102;52.014;-0.680;2023-02-12T01:05:00;102882;;;9.44;66.91
57250;BME280;43102;52.014;-0.680;2023-02-12T01:06:00;102882;;;9.44;66.91
57250;BME280;43102;52.014;-0.680;2023-02-12T01:07:00;102882;;;9.44;66.91
57250;BME280;43102;52.014;-0.680;2023-02-12T01:08:00;102876;;;9.42;67.02
57250;BME280;43102;52.014;-0.680;2023-02-12T01:09:00;102876;;;9.42;67.02
57250;BME280;43102;52.014;-0.680;2023-02-12T01:10:00;102876;;;9.42;67.02
57250;BME280;43102;52.014;-0.680;2023-02-12T01:11:02;102876;;;9.42;67.02
57250;BME280;43102;52.014;-0.680;2023-02-12T01:12:00;102876;;;9.42;67.02
57250;BME280;43102;52.014;-0.680;2023-02-12T01:13:00;102882;;;9.44;67.06
57250;BME280;43102;52.014;-0.680;2023-02-12T01:14:00;102882;;;9.44;67.06
57250;BME280;43102;52.014;-0.680;2023-02-12T01:15:00;102882;;;9.44;67.06
57250;BME280;43102;52.014;-0.680;2023-02-12T01:16:05;102882;;;9.44;67.06
57250;BME280;43102;52.014;-0.680;2023-02-12T01:17:00;102882;;;9.44;67.06
57250;BME280;43102;52.014;-0.680;2023-02-12T01:18:00;102885;;;9.45;67.17
57250;BME280;43102;52.014;-0.680;2023-02-12T01:19:00;102885;;;9.45;67.17
57250;BME280;43102;52.014;-0.680;2023-02-12T01:20:00;102885;;;9.45;67.17
57250;BME280;43102;52.014;-0.680;2023-02-12T01:21:00;102885;;;9.45;67.17
57250;BME280;43102;52.014;-0.680;2023-02-12T01:22:00;102885;;;9.45;67.17
57250;BME280;43102;52.014;-0.680;2023-02-12T01:23:00;102884;;;9.46;67.34
57250;BME280;43102;52.014;-0.680;2023-02-12T01:24:00;102884;;;9.46;67.34
57250;BME280;43102;52.014;-0.680;2023-02-12T01:25:00;102884;;;9.46;67.34
57250;BME280;43102;52.014;-0.680;2023-02-12T01:26:00;102884;;;9.46;67.34
57250;BME280;43102;52.014;-0.680;2023-02-12T01:27:00;102884;;;9.46;67.34
57250;BME280;43102;52.014;-0.680;2023-02-12T01:28:00;102885;;;9.49;67.20
57250;BME280;43102;52.014;-0.680;2023-02-12T01:29:01;102885;;;9.49;67.20
57250;BME280;43102;52.014;-0.680;2023-02-12T01:30:00;102885;;;9.49;67.20
57250;BME280;43102;52.014;-0.680;2023-02-12T01:31:00;102885;;;9.49;67.20
57250;BME280;43102;52.014;-0.680;2023-02-12T01:32:00;102885;;;9.49;67.20
57250;BME280;43102;52.014;-0.680;2023-02-12T01:33:00;102887;;;9.50;66.97
57250;BME280;43102;52.014;-0.680;2023-02-12T01:34:00;102887;;;9.50;66.97
57250;BME280;43102;52.014;-0.680;2023-02-12T01:35:00;102887;;;9.50;66.97
57250;BME280;43102;52.014;-0.680;2023-02-12T01:36:00;102887;;;9.50;66.97
57250;BME280;43102;52.014;-0.680;2023-02-12T01:37:00;102887;;;9.50;66.97
57250;BME280;43102;52.014;-0.680;2023-02-12T01:38:00;102882;;;9.48;66.86
57250;BME280;43102;52.014;-0.680;2023-02-12T01:39:00;102882;;;9.48;66.86
57250;BME280;43102;52.014;-0.680;2023-02-12T01:40:00;102882;;;9.48;66.86
57250;BME280;43102;52.014;-0.680;2023-02-12T01:41:01;102882;;;9.48;66.86
57250;BME280;43102;52.014;-0.680;2023-02-12T01:42:00;102882;;;9.48;66.86
57250;BME280;43102;52.014;-0.680;2023-02-12T01:43:00;102873;;;9.43;66.74
57250;BME280;43102;52.014;-0.680;2023-02-12T01:44:04;102873;;;9.43;66.74
57250;BME280;43102;52.014;-0.680;2023-02-12T01:46:00;102873;;;9.43;66.74
57250;BME280;43102;52.014;-0.680;2023-02-12T01:47:01;102873;;;9.43;66.74
57250;BME280;43102;52.014;-0.680;2023-02-12T01:48:00;102874;;;9.45;66.83
57250;BME280;43102;52.014;-0.680;2023-02-12T01:49:00;102874;;;9.45;66.83
57250;BME280;43102;52.014;-0.680;2023-02-12T01:50:00;102874;;;9.45;66.83
57250;BME280;43102;52.014;-0.680;2023-02-12T01:51:00;102874;;;9.45;66.83
57250;BME280;43102;52.014;-0.680;2023-02-12T01:52:03;102874;;;9.45;66.83
57250;BME280;43102;52.014;-0.680;2023-02-12T01:53:00;102883;;;9.47;66.95
57250;BME280;43102;52.014;-0.680;2023-02-12T01:54:01;102883;;;9.47;66.95
57250;BME280;43102;52.014;-0.680;2023-02-12T01:55:01;102883;;;9.47;66.95
57250;BME280;43102;52.014;-0.680;2023-02-12T01:56:00;102883;;;9.47;66.95
57250;BME280;43102;52.014;-0.680;2023-02-12T01:57:00;102883;;;9.47;66.95
57250;BME280;43102;52.014;-0.680;2023-02-12T01:58:00;102876;;;9.47;67.04
57250;BME280;43102;52.014;-0.680;2023-02-12T01:59:00;102876;;;9.47;67.04
57250;BME280;43102;52.014;-0.680;2023-02-12T02:00:01;102876;;;9.47;67.04
57250;BME280;43102;52.014;-0.680;2023-02-12T02:01:01;102876;;;9.47;67.04
57250;BME280;43102;52.014;-0.680;2023-02-12T02:02:00;102876;;;9.47;67.04
57250;BME280;43102;52.014;-0.680;2023-02-12T02:03:00;102884;;;9.45;67.14
57250;BME280;43102;52.014;-0.680;2023-02-12T02:04:01;102884;;;9.45;67.14
57250;BME280;43102;52.014;-0.680;2023-02-12T02:05:00;102884;;;9.45;67.14
57250;BME280;43102;52.014;-0.680;2023-02-12T02:06:02;102884;;;9.45;67.14
57250;BME280;43102;52.014;-0.680;2023-02-12T02:07:01;102884;;;9.45;67.14
57250;BME280;43102;52.014;-0.680;2023-02-12T02:08:00;102875;;;9.39;67.16
57250;BME280;43102;52.014;-0.680;2023-02-12T02:09:00;102875;;;9.39;67.16
57250;BME280;43102;52.014;-0.680;2023-02-12T02:10:00;102875;;;9.39;67.16
57250;BME280;43102;52.014;-0.680;2023-02-12T02:11:00;102875;;;9.39;67.16
57250;BME280;43102;52.014;-0.680;2023-02-12T02:12:00;102875;;;9.39;67.16
57250;BME280;43102;52.014;-0.680;2023-02-12T02:13:00;102887;;;9.37;67.18
57250;BME280;43102;52.014;-0.680;2023-02-12T02:14:00;102887;;;9.37;67.18
57250;BME280;43102;52.014;-0.680;2023-02-12T02:15:00;102887;;;9.37;67.18
57250;BME280;43102;52.014;-0.680;2023-02-12T02:16:02;102887;;;9.37;67.18
57250;BME280;43102;52.014;-0.680;2023-02-12T02:19:01;102882;;;9.39;67.20
57250;BME280;43102;52.014;-0.680;2023-02-12T02:22:33;102882;;;9.39;67.20
57250;BME280;43102;52.014;-0.680;2023-02-12T02:27:17;102882;;;9.40;67.24
57250;BME280;43102;52.014;-0.680;2023-02-12T02:28:08;102874;;;9.44;67.22
57250;BME280;43102;52.014;-0.680;2023-02-12T02:29:09;102874;;;9.44;67.22
57250;BME280;43102;52.014;-0.680;2023-02-12T02:31:04;102874;;;9.44;67.22
57250;BME280;43102;52.014;-0.680;2023-02-12T02:32:05;102874;;;9.44;67.22
57250;BME280;43102;52.014;-0.680;2023-02-12T02:35:05;102870;;;9.41;67.33
57250;BME280;43102;52.014;-0.680;2023-02-12T02:36:11;102870;;;9.41;67.33
57250;BME280;43102;52.014;-0.680;2023-02-12T02:37:02;102870;;;9.41;67.33
57250;BME280;43102;52.014;-0.680;2023-02-12T02:38:05;102874;;;9.41;67.43
57250;BME280;43102;52.014;-0.680;2023-02-12T02:39:05;102874;;;9.41;67.43
57250;BME280;43102;52.014;-0.680;2023-02-12T02:40:03;102874;;;9.41;67.43
57250;BME280;43102;52.014;-0.680;2023-02-12T02:42:02;102874;;;9.41;67.43
57250;BME280;43102;52.014;-0.680;2023-02-12T02:43:03;102868;;;9.39;67.51
57250;BME280;43102;52.014;-0.680;2023-02-12T02:44:02;102868;;;9.39;67.51
57250;BME280;43102;52.014;-0.680;2023-02-12T02:46:04;102868;;;9.39;67.51
57250;BME280;43102;52.014;-0.680;2023-02-12T02:47:00;102868;;;9.39;67.51
57250;BME280;43102;52.014;-0.680;2023-02-12T02:48:01;102874;;;9.31;67.53
57250;BME280;43102;52.014;-0.680;2023-02-12T02:49:02;102874;;;9.31;67.53
57250;BME280;43102;52.014;-0.680;2023-02-12T02:50:02;102874;;;9.31;67.53
57250;BME280;43102;52.014;-0.680;2023-02-12T02:51:02;102874;;;9.31;67.53
57250;BME280;43102;52.014;-0.680;2023-02-12T02:52:02;102874;;;9.31;67.53
57250;BME280;43102;52.014;-0.680;2023-02-12T02:53:03;102864;;;9.30;67.68
57250;BME280;43102;52.014;-0.680;2023-02-12T02:54:02;102864;;;9.30;67.68
57250;BME280;43102;52.014;-0.680;2023-02-12T02:55:02;102864;;;9.30;67.68
57250;BME280;43102;52.014;-0.680;2023-02-12T02:56:01;102864;;;9.30;67.68
57250;BME280;43102;52.014;-0.680;2023-02-12T02:57:03;102864;;;9.30;67.68
57250;BME280;43102;52.014;-0.680;2023-02-12T02:58:03;102867;;;9.31;67.76
57250;BME280;43102;52.014;-0.680;2023-02-12T02:59:02;102867;;;9.31;67.76
57250;BME280;43102;52.014;-0.680;2023-02-12T03:00:02;102867;;;9.31;67.76
57250;BME280;43102;52.014;-0.680;2023-02-12T03:02:03;102867;;;9.31;67.76
57250;BME280;43102;52.014;-0.680;2023-02-12T03:03:01;102863;;;9.27;67.88
57250;BME280;43102;52.014;-0.680;2023-02-12T03:04:02;102863;;;9.27;67.88
57250;BME280;43102;52.014;-0.680;2023-02-12T03:05:02;102863;;;9.27;67.88
57250;BME280;43102;52.014;-0.680;2023-02-12T03:06:02;102863;;;9.27;67.88
57250;BME280;43102;52.014;-0.680;2023-02-12T03:07:05;102863;;;9.27;67.88
57250;BME280;43102;52.014;-0.680;2023-02-12T03:08:02;102857;;;9.22;68.01
57250;BME280;43102;52.014;-0.680;2023-02-12T03:09:01;102857;;;9.22;68.01
57250;BME280;43102;52.014;-0.680;2023-02-12T03:10:03;102857;;;9.22;68.01
57250;BME280;43102;52.014;-0.680;2023-02-12T03:11:02;102857;;;9.22;68.01
57250;BME280;43102;52.014;-0.680;2023-02-12T03:12:02;102857;;;9.22;68.01
57250;BME280;43102;52.014;-0.680;2023-02-12T03:14:02;102861;;;9.27;68.01
57250;BME280;43102;52.014;-0.680;2023-02-12T03:15:02;102861;;;9.27;68.01
57250;BME280;43102;52.014;-0.680;2023-02-12T03:16:05;102861;;;9.27;68.01
57250;BME280;43102;52.014;-0.680;2023-02-12T03:17:01;102861;;;9.27;68.01
57250;BME280;43102;52.014;-0.680;2023-02-12T03:18:00;102858;;;9.26;68.04
57250;BME280;43102;52.014;-0.680;2023-02-12T03:19:05;102858;;;9.26;68.04
57250;BME280;43102;52.014;-0.680;2023-02-12T03:20:05;102858;;;9.26;68.04
57250;BME280;43102;52.014;-0.680;2023-02-12T03:21:01;102858;;;9.26;68.04
57250;BME280;43102;52.014;-0.680;2023-02-12T03:22:01;102858;;;9.26;68.04
57250;BME280;43102;52.014;-0.680;2023-02-12T03:23:02;102854;;;9.23;68.09
57250;BME280;43102;52.014;-0.680;2023-02-12T03:24:04;102854;;;9.23;68.09
57250;BME280;43102;52.014;-0.680;2023-02-12T03:25:03;102854;;;9.23;68.09
57250;BME280;43102;52.014;-0.680;2023-02-12T03:26:03;102854;;;9.23;68.09
57250;BME280;43102;52.014;-0.680;2023-02-12T03:27:04;102854;;;9.23;68.09
57250;BME280;43102;52.014;-0.680;2023-02-12T03:28:03;102855;;;9.14;68.20
57250;BME280;43102;52.014;-0.680;2023-02-12T03:29:00;102855;;;9.14;68.20
57250;BME280;43102;52.014;-0.680;2023-02-12T03:30:00;102855;;;9.14;68.20
57250;BME280;43102;52.014;-0.680;2023-02-12T03:31:18;102855;;;9.14;68.20
57250;BME280;43102;52.014;-0.680;2023-02-12T03:33:04;102863;;;9.16;68.29
57250;BME280;43102;52.014;-0.680;2023-02-12T03:35:05;102863;;;9.16;68.29
57250;BME280;43102;52.014;-0.680;2023-02-12T03:36:02;102863;;;9.16;68.29
57250;BME280;43102;52.014;-0.680;2023-02-12T03:37:03;102863;;;9.16;68.29
57250;BME280;43102;52.014;-0.680;2023-02-12T03:38:03;102859;;;9.14;68.27
57250;BME280;43102;52.014;-0.680;2023-02-12T03:39:05;102859;;;9.14;68.27
57250;BME280;43102;52.014;-0.680;2023-02-12T03:41:02;102859;;;9.14;68.27
57250;BME280;43102;52.014;-0.680;2023-02-12T03:42:18;102859;;;9.14;68.27
57250;BME280;43102;52.014;-0.680;2023-02-12T03:43:02;102861;;;9.07;68.38
57250;BME280;43102;52.014;-0.680;2023-02-12T03:44:12;102861;;;9.07;68.38
57250;BME280;43102;52.014;-0.680;2023-02-12T03:46:03;102861;;;9.07;68.38
57250;BME280;43102;52.014;-0.680;2023-02-12T03:47:03;102861;;;9.07;68.38
57250;BME280;43102;52.014;-0.680;2023-02-12T03:49:02;102853;;;9.06;68.50
57250;BME280;43102;52.014;-0.680;2023-02-12T03:50:03;102853;;;9.06;68.50
57250;BME280;43102;52.014;-0.680;2023-02-12T03:52:00;102853;;;9.06;68.50
57250;BME280;43102;52.014;-0.680;2023-02-12T03:53:00;102854;;;9.13;68.43
57250;BME280;43102;52.014;-0.680;2023-02-12T03:54:00;102854;;;9.13;68.43
57250;BME280;43102;52.014;-0.680;2023-02-12T03:55:00;102854;;;9.13;68.43
57250;BME280;43102;52.014;-0.680;2023-02-12T03:56:02;102854;;;9.13;68.43
57250;BME280;43102;52.014;-0.680;2023-02-12T03:58:00;102855;;;9.14;68.49
57250;BME280;43102;52.014;-0.680;2023-02-12T03:59:00;102855;;;9.14;68.49
57250;BME280;43102;52.014;-0.680;2023-02-12T04:00:04;102855;;;9.14;68.49
57250;BME280;43102;52.014;-0.680;2023-02-12T04:01:00;102855;;;9.14;68.49
57250;BME280;43102;52.014;-0.680;2023-02-12T04:02:00;102855;;;9.14;68.49
57250;BME280;43102;52.014;-0.680;2023-02-12T04:03:00;102864;;;9.11;68.64
57250;BME280;43102;52.014;-0.680;2023-02-12T04:04:04;102864;;;9.11;68.64
57250;BME280;43102;52.014;-0.680;2023-02-12T04:05:07;102864;;;9.11;68.64
57250;BME280;43102;52.014;-0.680;2023-02-12T04:06:00;102864;;;9.11;68.64
57250;BME280;43102;52.014;-0.680;2023-02-12T04:07:00;102864;;;9.11;68.64
57250;BME280;43102;52.014;-0.680;2023-02-12T04:08:07;102870;;;9.09;68.75
57250;BME280;43102;52.014;-0.680;2023-02-12T04:09:02;102870;;;9.09;68.75
57250;BME280;43102;52.014;-0.680;2023-02-12T04:10:00;102870;;;9.09;68.75
57250;BME280;43102;52.014;-0.680;2023-02-12T04:15:42;102872;;;9.10;68.83
57250;BME280;43102;52.014;-0.680;2023-02-12T04:16:05;102872;;;9.10;68.83
57250;BME280;43102;52.014;-0.680;2023-02-12T04:19:00;102864;;;9.12;68.87
57250;BME280;43102;52.014;-0.680;2023-02-12T04:23:06;102861;;;9.10;68.96
57250;BME280;43102;52.014;-0.680;2023-02-12T04:25:12;102861;;;9.10;68.96
57250;BME280;43102;52.014;-0.680;2023-02-12T04:26:04;102861;;;9.10;68.96
57250;BME280;43102;52.014;-0.680;2023-02-12T04:30:11;102871;;;9.05;69.03
57250;BME280;43102;52.014;-0.680;2023-02-12T04:31:05;102871;;;9.05;69.03
57250;BME280;43102;52.014;-0.680;2023-02-12T04:32:04;102871;;;9.05;69.03
57250;BME280;43102;52.014;-0.680;2023-02-12T04:33:02;102873;;;9.05;69.08
57250;BME280;43102;52.014;-0.680;2023-02-12T04:36:02;102873;;;9.05;69.08
57250;BME280;43102;52.014;-0.680;2023-02-12T04:38:06;102871;;;9.06;69.03
57250;BME280;43102;52.014;-0.680;2023-02-12T04:39:02;102871;;;9.06;69.03
57250;BME280;43102;52.014;-0.680;2023-02-12T04:40:02;102871;;;9.06;69.03
57250;BME280;43102;52.014;-0.680;2023-02-12T04:41:00;102871;;;9.06;69.03
57250;BME280;43102;52.014;-0.680;2023-02-12T04:42:00;102871;;;9.06;69.03
57250;BME280;43102;52.014;-0.680;2023-02-12T04:43:00;102870;;;9.06;69.08
57250;BME280;43102;52.014;-0.680;2023-02-12T04:44:12;102870;;;9.06;69.08
57250;BME280;43102;52.014;-0.680;2023-02-12T04:45:00;102870;;;9.06;69.08
57250;BME280;43102;52.014;-0.680;2023-02-12T04:46:00;102870;;;9.06;69.08
57250;BME280;43102;52.014;-0.680;2023-02-12T04:47:00;102870;;;9.06;69.08
57250;BME280;43102;52.014;-0.680;2023-02-12T04:48:00;102872;;;9.03;69.14
57250;BME280;43102;52.014;-0.680;2023-02-12T04:49:00;102872;;;9.03;69.14
57250;BME280;43102;52.014;-0.680;2023-02-12T04:50:00;102872;;;9.03;69.14
57250;BME280;43102;52.014;-0.680;2023-02-12T04:51:00;102872;;;9.03;69.14
57250;BME280;43102;52.014;-0.680;2023-02-12T04:52:00;102872;;;9.03;69.14
57250;BME280;43102;52.014;-0.680;2023-02-12T04:53:00;102869;;;9.03;69.09
57250;BME280;43102;52.014;-0.680;2023-02-12T04:54:00;102869;;;9.03;69.09
57250;BME280;43102;52.014;-0.680;2023-02-12T04:55:00;102869;;;9.03;69.09
57250;BME280;43102;52.014;-0.680;2023-02-12T04:56:00;102869;;;9.03;69.09
57250;BME280;43102;52.014;-0.680;2023-02-12T04:57:00;102869;;;9.03;69.09
57250;BME280;43102;52.014;-0.680;2023-02-12T04:58:00;102876;;;9.03;69.19
57250;BME280;43102;52.014;-0.680;2023-02-12T04:59:00;102876;;;9.03;69.19
57250;BME280;43102;52.014;-0.680;2023-02-12T05:00:00;102876;;;9.03;69.19
57250;BME280;43102;52.014;-0.680;2023-02-12T05:01:00;102876;;;9.03;69.19
57250;BME280;43102;52.014;-0.680;2023-02-12T05:02:00;102876;;;9.03;69.19
57250;BME280;43102;52.014;-0.680;2023-02-12T05:03:00;102881;;;9.00;69.15
57250;BME280;43102;52.014;-0.680;2023-02-12T05:04:00;102881;;;9.00;69.15
57250;BME280;43102;52.014;-0.680;2023-02-12T05:05:00;102881;;;9.00;69.15
57250;BME280;43102;52.014;-0.680;2023-02-12T05:06:02;102881;;;9.00;69.15
57250;BME280;43102;52.014;-0.680;2023-02-12T05:07:00;102881;;;9.00;69.15
57250;BME280;43102;52.014;-0.680;2023-02-12T05:08:00;102874;;;9.02;69.25
57250;BME280;43102;52.014;-0.680;2023-02-12T05:09:00;102874;;;9.02;69.25
57250;BME280;43102;52.014;-0.680;2023-02-12T05:10:00;102874;;;9.02;69.25
57250;BME280;43102;52.014;-0.680;2023-02-12T05:11:04;102874;;;9.02;69.25
57250;BME280;43102;52.014;-0.680;2023-02-12T05:12:00;102874;;;9.02;69.25
57250;BME280;43102;52.014;-0.680;2023-02-12T05:13:00;102879;;;9.04;69.34
57250;BME280;43102;52.014;-0.680;2023-02-12T05:14:00;102879;;;9.04;69.34
57250;BME280;43102;52.014;-0.680;2023-02-12T05:15:00;102879;;;9.04;69.34
57250;BME280;43102;52.014;-0.680;2023-02-12T05:16:04;102879;;;9.04;69.34
57250;BME280;43102;52.014;-0.680;2023-02-12T05:17:00;102879;;;9.04;69.34
57250;BME280;43102;52.014;-0.680;2023-02-12T05:18:00;102878;;;9.00;69.37
57250;BME280;43102;52.014;-0.680;2023-02-12T05:19:00;102878;;;9.00;69.37
57250;BME280;43102;52.014;-0.680;2023-02-12T05:20:00;102878;;;9.00;69.37
57250;BME280;43102;52.014;-0.680;2023-02-12T05:21:01;102878;;;9.00;69.37
57250;BME280;43102;52.014;-0.680;2023-02-12T05:22:00;102878;;;9.00;69.37
57250;BME280;43102;52.014;-0.680;2023-02-12T05:23:00;102871;;;8.93;69.35
57250;BME280;43102;52.014;-0.680;2023-02-12T05:24:00;102871;;;8.93;69.35
57250;BME280;43102;52.014;-0.680;2023-02-12T05:25:00;102871;;;8.93;69.35
57250;BME280;43102;52.014;-0.680;2023-02-12T05:26:01;102871;;;8.93;69.35
57250;BME280;43102;52.014;-0.680;2023-02-12T05:27:00;102871;;;8.93;69.35
57250;BME280;43102;52.014;-0.680;2023-02-12T05:28:00;102874;;;8.85;69.43
57250;BME280;43102;52.014;-0.680;2023-02-12T05:29:00;102874;;;8.85;69.43
57250;BME280;43102;52.014;-0.680;2023-02-12T05:30:00;102874;;;8.85;69.43
57250;BME280;43102;52.014;-0.680;2023-02-12T05:31:01;102874;;;8.85;69.43
57250;BME280;43102;52.014;-0.680;2023-02-12T05:32:00;102874;;;8.85;69.43
57250;BME280;43102;52.014;-0.680;2023-02-12T05:33:00;102876;;;8.87;69.53
57250;BME280;43102;52.014;-0.680;2023-02-12T05:34:00;102876;;;8.87;69.53
57250;BME280;43102;52.014;-0.680;2023-02-12T05:35:00;102876;;;8.87;69.53
57250;BME280;43102;52.014;-0.680;2023-02-12T05:36:02;102876;;;8.87;69.53
57250;BME280;43102;52.014;-0.680;2023-02-12T05:37:00;102876;;;8.87;69.53
57250;BME280;43102;52.014;-0.680;2023-02-12T05:38:00;102874;;;8.91;69.55
57250;BME280;43102;52.014;-0.680;2023-02-12T05:39:00;102874;;;8.91;69.55
57250;BME280;43102;52.014;-0.680;2023-02-12T05:40:01;102874;;;8.91;69.55
57250;BME280;43102;52.014;-0.680;2023-02-12T05:41:02;102874;;;8.91;69.55
57250;BME280;43102;52.014;-0.680;2023-02-12T05:42:00;102874;;;8.91;69.55
57250;BME280;43102;52.014;-0.680;2023-02-12T05:43:00;102865;;;8.92;69.59
57250;BME280;43102;52.014;-0.680;2023-02-12T05:44:01;102865;;;8.92;69.59
57250;BME280;43102;52.014;-0.680;2023-02-12T05:45:00;102865;;;8.92;69.59
57250;BME280;43102;52.014;-0.680;2023-02-12T05:46:01;102865;;;8.92;69.59
57250;BME280;43102;52.014;-0.680;2023-02-12T05:47:00;102865;;;8.92;69.59
57250;BME280;43102;52.014;-0.680;2023-02-12T05:48:00;102873;;;8.89;69.71
57250;BME280;43102;52.014;-0.680;2023-02-12T05:49:00;102873;;;8.89;69.71
57250;BME280;43102;52.014;-0.680;2023-02-12T05:50:00;102873;;;8.89;69.71
57250;BME280;43102;52.014;-0.680;2023-02-12T05:51:01;102873;;;8.89;69.71
57250;BME280;43102;52.014;-0.680;2023-02-12T05:52:00;102873;;;8.89;69.71
57250;BME280;43102;52.014;-0.680;2023-02-12T05:53:00;102857;;;8.84;69.65
57250;BME280;43102;52.014;-0.680;2023-02-12T05:54:01;102857;;;8.84;69.65
57250;BME280;43102;52.014;-0.680;2023-02-12T05:55:00;102857;;;8.84;69.65
57250;BME280;43102;52.014;-0.680;2023-02-12T05:56:17;102857;;;8.84;69.65
57250;BME280;43102;52.014;-0.680;2023-02-12T05:57:00;102857;;;8.84;69.65
57250;BME280;43102;52.014;-0.680;2023-02-12T05:58:00;102855;;;8.86;69.81
57250;BME280;43102;52.014;-0.680;2023-02-12T05:59:01;102855;;;8.86;69.81
57250;BME280;43102;52.014;-0.680;2023-02-12T06:00:00;102855;;;8.86;69.81
57250;BME280;43102;52.014;-0.680;2023-02-12T06:01:00;102855;;;8.86;69.81
57250;BME280;43102;52.014;-0.680;2023-02-12T06:02:00;102855;;;8.86;69.81
57250;BME280;43102;52.014;-0.680;2023-02-12T06:03:00;102858;;;8.84;70.04
57250;BME280;43102;52.014;-0.680;2023-02-12T06:04:01;102858;;;8.84;70.04
57250;BME280;43102;52.014;-0.680;2023-02-12T06:05:00;102858;;;8.84;70.04
57250;BME280;43102;52.014;-0.680;2023-02-12T06:06:00;102858;;;8.84;70.04